sensor_id;sensor_type;location;lat;lon;timestamp;temperature;humidity
47606;DHT22;55448;51.330;4.946;2022-08-05T00:01:19;18.70;99.90
47606;DHT22;55448;51.330;4.946;2022-08-05T00:03:46;18.70;99.90
47606;DHT22;55448;51.330;4.946;2022-08-05T00:06:12;18.80;99.90
47606;DHT22;55448;51.330;4.946;2022-08-05T00:08:38;18.90;99.90
47606;DHT22;55448;51.330;4.946;2022-08-05T00:11:06;18.90;99.90
47606;DHT22;55448;51.330;4.946;2022-08-05T00:13:34;18.90;99.90
47606;DHT22;55448;51.330;4.946;2022-08-05T00:16:01;19.00;99.90
47606;DHT22;55448;51.330;4.946;2022-08-05T00:18:27;18.90;99.90
47606;DHT22;55448;51.330;4.946;2022-08-05T00:20:53;18.90;99.90
47606;DHT22;55448;51.330;4.946;2022-08-05T00:23:19;18.90;99.90
47606;DHT22;55448;51.330;4.946;2022-08-05T00:25:44;18.90;99.90
47606;DHT22;55448;51.330;4.946;2022-08-05T00:28:10;18.80;99.90
47606;DHT22;55448;51.330;4.946;2022-08-05T00:30:35;18.80;99.90
47606;DHT22;55448;51.330;4.946;2022-08-05T00:33:01;18.50;99.90
47606;DHT22;55448;51.330;4.946;2022-08-05T00:35:27;18.60;99.90
47606;DHT22;55448;51.330;4.946;2022-08-05T00:37:53;18.70;99.90
47606;DHT22;55448;51.330;4.946;2022-08-05T00:40:21;18.70;99.90
47606;DHT22;55448;51.330;4.946;2022-08-05T00:42:47;18.60;99.90
47606;DHT22;55448;51.330;4.946;2022-08-05T00:45:13;18.50;99.90
47606;DHT22;55448;51.330;4.946;2022-08-05T00:47:39;18.60;99.90
47606;DHT22;55448;51.330;4.946;2022-08-05T00:50:05;18.60;99.90
47606;DHT22;55448;51.330;4.946;2022-08-05T00:52:31;18.80;99.90
47606;DHT22;55448;51.330;4.946;2022-08-05T00:54:57;18.70;99.90
47606;DHT22;55448;51.330;4.946;2022-08-05T00:57:23;18.80;99.90
47606;DHT22;55448;51.330;4.946;2022-08-05T00:59:48;18.70;99.90
47606;DHT22;55448;51.330;4.946;2022-08-05T01:02:14;18.70;99.90
47606;DHT22;55448;51.330;4.946;2022-08-05T01:04:40;18.80;99.90
47606;DHT22;55448;51.330;4.946;2022-08-05T01:07:06;18.70;99.90
47606;DHT22;55448;51.330;4.946;2022-08-05T01:09:32;18.50;99.90
47606;DHT22;55448;51.330;4.946;2022-08-05T01:12:10;18.40;99.90
47606;DHT22;55448;51.330;4.946;2022-08-05T01:14:47;18.50;99.90
47606;DHT22;55448;51.330;4.946;2022-08-05T01:19:58;18.50;99.90
47606;DHT22;55448;51.330;4.946;2022-08-05T01:23:01;18.50;99.90
47606;DHT22;55448;51.330;4.946;2022-08-05T01:31:15;18.60;99.90
47606;DHT22;55448;51.330;4.946;2022-08-05T01:34:02;18.50;99.90
47606;DHT22;55448;51.330;4.946;2022-08-05T01:36:31;18.50;99.90
47606;DHT22;55448;51.330;4.946;2022-08-05T01:38:59;18.50;99.90
47606;DHT22;55448;51.330;4.946;2022-08-05T01:41:28;18.50;99.90
47606;DHT22;55448;51.330;4.946;2022-08-05T01:43:54;18.40;99.90
47606;DHT22;55448;51.330;4.946;2022-08-05T01:46:21;18.40;99.90
47606;DHT22;55448;51.330;4.946;2022-08-05T01:48:49;18.70;99.90
47606;DHT22;55448;51.330;4.946;2022-08-05T01:51:17;18.80;99.90
47606;DHT22;55448;51.330;4.946;2022-08-05T01:53:45;18.70;99.90
47606;DHT22;55448;51.330;4.946;2022-08-05T01:56:13;18.60;99.90
47606;DHT22;55448;51.330;4.946;2022-08-05T01:58:41;18.90;99.90
47606;DHT22;55448;51.330;4.946;2022-08-05T02:01:08;18.60;99.90
47606;DHT22;55448;51.330;4.946;2022-08-05T02:03:37;18.50;99.90
47606;DHT22;55448;51.330;4.946;2022-08-05T02:06:05;18.40;99.90
47606;DHT22;55448;51.330;4.946;2022-08-05T02:08:32;18.30;99.90
47606;DHT22;55448;51.330;4.946;2022-08-05T02:11:05;18.20;99.90
47606;DHT22;55448;51.330;4.946;2022-08-05T02:13:55;18.10;99.90
47606;DHT22;55448;51.330;4.946;2022-08-05T02:16:31;18.10;99.90
47606;DHT22;55448;51.330;4.946;2022-08-05T02:19:04;18.10;99.90
47606;DHT22;55448;51.330;4.946;2022-08-05T02:21:38;18.00;99.90
47606;DHT22;55448;51.330;4.946;2022-08-05T02:24:08;18.10;99.90
47606;DHT22;55448;51.330;4.946;2022-08-05T02:26:40;18.40;99.90
47606;DHT22;55448;51.330;4.946;2022-08-05T02:29:11;18.40;99.90
47606;DHT22;55448;51.330;4.946;2022-08-05T02:31:38;18.30;99.90
47606;DHT22;55448;51.330;4.946;2022-08-05T02:34:08;18.10;99.90
47606;DHT22;55448;51.330;4.946;2022-08-05T02:36:43;18.10;99.90
47606;DHT22;55448;51.330;4.946;2022-08-05T02:39:11;18.20;99.90
47606;DHT22;55448;51.330;4.946;2022-08-05T02:41:38;18.40;99.90
47606;DHT22;55448;51.330;4.946;2022-08-05T02:44:09;18.40;99.90
47606;DHT22;55448;51.330;4.946;2022-08-05T02:46:35;18.30;99.90
47606;DHT22;55448;51.330;4.946;2022-08-05T02:49:04;18.20;99.90
47606;DHT22;55448;51.330;4.946;2022-08-05T02:51:30;18.30;99.90
47606;DHT22;55448;51.330;4.946;2022-08-05T02:53:57;18.20;99.90
47606;DHT22;55448;51.330;4.946;2022-08-05T02:56:23;18.30;99.90
47606;DHT22;55448;51.330;4.946;2022-08-05T02:58:51;18.30;99.90
47606;DHT22;55448;51.330;4.946;2022-08-05T03:01:25;18.40;99.90
47606;DHT22;55448;51.330;4.946;2022-08-05T03:03:59;18.40;99.90
47606;DHT22;55448;51.330;4.946;2022-08-05T03:06:26;18.50;99.90
47606;DHT22;55448;51.330;4.946;2022-08-05T03:08:53;18.50;99.90
47606;DHT22;55448;51.330;4.946;2022-08-05T03:11:24;18.50;99.90
47606;DHT22;55448;51.330;4.946;2022-08-05T03:13:51;18.40;99.90
47606;DHT22;55448;51.330;4.946;2022-08-05T03:16:17;18.40;99.90
47606;DHT22;55448;51.330;4.946;2022-08-05T03:18:42;18.30;99.90
47606;DHT22;55448;51.330;4.946;2022-08-05T03:21:09;18.40;99.90
47606;DHT22;55448;51.330;4.946;2022-08-05T03:23:36;18.40;99.90
47606;DHT22;55448;51.330;4.946;2022-08-05T03:26:03;18.60;99.90
47606;DHT22;55448;51.330;4.946;2022-08-05T03:28:29;18.80;99.90
47606;DHT22;55448;51.330;4.946;2022-08-05T03:30:56;18.90;99.90
47606;DHT22;55448;51.330;4.946;2022-08-05T03:33:24;19.00;99.90
47606;DHT22;55448;51.330;4.946;2022-08-05T03:35:50;19.00;99.90
47606;DHT22;55448;51.330;4.946;2022-08-05T03:38:16;19.00;99.90
47606;DHT22;55448;51.330;4.946;2022-08-05T03:40:43;19.00;99.90
47606;DHT22;55448;51.330;4.946;2022-08-05T03:43:09;18.90;99.90
47606;DHT22;55448;51.330;4.946;2022-08-05T03:45:35;18.90;99.90
47606;DHT22;55448;51.330;4.946;2022-08-05T03:48:01;19.00;99.90
47606;DHT22;55448;51.330;4.946;2022-08-05T03:50:42;18.90;99.90
47606;DHT22;55448;51.330;4.946;2022-08-05T03:53:13;19.00;99.90
47606;DHT22;55448;51.330;4.946;2022-08-05T03:55:46;18.90;99.90
47606;DHT22;55448;51.330;4.946;2022-08-05T03:58:16;18.90;99.90
47606;DHT22;55448;51.330;4.946;2022-08-05T04:00:43;19.00;99.90
47606;DHT22;55448;51.330;4.946;2022-08-05T04:03:11;18.90;99.90
47606;DHT22;55448;51.330;4.946;2022-08-05T04:05:37;18.90;99.90
47606;DHT22;55448;51.330;4.946;2022-08-05T04:08:07;18.90;99.90
47606;DHT22;55448;51.330;4.946;2022-08-05T04:10:34;18.90;99.90
47606;DHT22;55448;51.330;4.946;2022-08-05T04:13:00;18.90;99.90
47606;DHT22;55448;51.330;4.946;2022-08-05T04:15:26;18.90;99.90
47606;DHT22;55448;51.330;4.946;2022-08-05T04:17:53;18.90;99.90
47606;DHT22;55448;51.330;4.946;2022-08-05T04:20:21;18.80;99.90
47606;DHT22;55448;51.330;4.946;2022-08-05T04:22:47;18.80;99.90
47606;DHT22;55448;51.330;4.946;2022-08-05T04:25:14;18.80;99.90
47606;DHT22;55448;51.330;4.946;2022-08-05T04:27:40;18.80;99.90
47606;DHT22;55448;51.330;4.946;2022-08-05T04:30:07;18.80;99.90
47606;DHT22;55448;51.330;4.946;2022-08-05T04:32:33;18.70;99.90
47606;DHT22;55448;51.330;4.946;2022-08-05T04:34:59;18.60;99.90
47606;DHT22;55448;51.330;4.946;2022-08-05T04:37:25;18.40;99.90
47606;DHT22;55448;51.330;4.946;2022-08-05T04:39:51;18.40;99.90
47606;DHT22;55448;51.330;4.946;2022-08-05T04:42:16;18.40;99.90
47606;DHT22;55448;51.330;4.946;2022-08-05T04:44:42;18.60;99.90
47606;DHT22;55448;51.330;4.946;2022-08-05T04:47:08;18.60;99.90
47606;DHT22;55448;51.330;4.946;2022-08-05T04:49:33;18.60;99.90
47606;DHT22;55448;51.330;4.946;2022-08-05T04:51:59;18.60;99.90
47606;DHT22;55448;51.330;4.946;2022-08-05T04:54:25;18.50;99.90
47606;DHT22;55448;51.330;4.946;2022-08-05T04:56:55;18.40;99.90
47606;DHT22;55448;51.330;4.946;2022-08-05T04:59:21;18.50;99.90
47606;DHT22;55448;51.330;4.946;2022-08-05T05:01:51;18.40;99.90
47606;DHT22;55448;51.330;4.946;2022-08-05T05:04:17;18.60;99.90
47606;DHT22;55448;51.330;4.946;2022-08-05T05:06:42;18.60;99.90
47606;DHT22;55448;51.330;4.946;2022-08-05T05:09:12;18.60;99.90
47606;DHT22;55448;51.330;4.946;2022-08-05T05:11:38;18.50;99.90
47606;DHT22;55448;51.330;4.946;2022-08-05T05:14:03;18.40;99.90
47606;DHT22;55448;51.330;4.946;2022-08-05T05:16:29;18.30;99.90
47606;DHT22;55448;51.330;4.946;2022-08-05T05:18:55;18.10;99.90
47606;DHT22;55448;51.330;4.946;2022-08-05T05:21:20;18.20;99.90
47606;DHT22;55448;51.330;4.946;2022-08-05T05:23:46;18.30;99.90
47606;DHT22;55448;51.330;4.946;2022-08-05T05:26:12;18.30;99.90
47606;DHT22;55448;51.330;4.946;2022-08-05T05:28:37;18.20;99.90
47606;DHT22;55448;51.330;4.946;2022-08-05T05:31:03;18.20;99.90
47606;DHT22;55448;51.330;4.946;2022-08-05T05:33:29;18.10;99.90
47606;DHT22;55448;51.330;4.946;2022-08-05T05:35:54;18.00;99.90
47606;DHT22;55448;51.330;4.946;2022-08-05T05:38:20;17.90;99.90
47606;DHT22;55448;51.330;4.946;2022-08-05T05:40:46;18.00;99.90
47606;DHT22;55448;51.330;4.946;2022-08-05T05:43:11;18.00;99.90
47606;DHT22;55448;51.330;4.946;2022-08-05T05:45:37;17.90;99.90
47606;DHT22;55448;51.330;4.946;2022-08-05T05:48:03;17.80;99.90
47606;DHT22;55448;51.330;4.946;2022-08-05T05:50:32;17.60;99.90
47606;DHT22;55448;51.330;4.946;2022-08-05T05:52:58;17.60;99.90
47606;DHT22;55448;51.330;4.946;2022-08-05T05:55:24;17.60;99.90
47606;DHT22;55448;51.330;4.946;2022-08-05T05:57:49;17.60;99.90
47606;DHT22;55448;51.330;4.946;2022-08-05T06:00:17;17.50;99.90
47606;DHT22;55448;51.330;4.946;2022-08-05T06:02:44;17.50;99.90
47606;DHT22;55448;51.330;4.946;2022-08-05T06:05:12;17.50;99.90
47606;DHT22;55448;51.330;4.946;2022-08-05T06:07:37;17.50;99.90
47606;DHT22;55448;51.330;4.946;2022-08-05T06:10:04;17.50;99.90
47606;DHT22;55448;51.330;4.946;2022-08-05T06:12:30;17.50;99.90
47606;DHT22;55448;51.330;4.946;2022-08-05T06:14:56;17.60;99.90
47606;DHT22;55448;51.330;4.946;2022-08-05T06:17:22;17.70;99.90
47606;DHT22;55448;51.330;4.946;2022-08-05T06:19:47;17.60;99.90
47606;DHT22;55448;51.330;4.946;2022-08-05T06:22:24;17.50;99.90
47606;DHT22;55448;51.330;4.946;2022-08-05T06:24:50;17.40;99.90
47606;DHT22;55448;51.330;4.946;2022-08-05T06:27:16;17.50;99.90
47606;DHT22;55448;51.330;4.946;2022-08-05T06:29:42;17.60;99.90
47606;DHT22;55448;51.330;4.946;2022-08-05T06:32:09;17.60;99.90
47606;DHT22;55448;51.330;4.946;2022-08-05T06:34:35;17.60;99.90
47606;DHT22;55448;51.330;4.946;2022-08-05T06:37:01;17.60;99.90
47606;DHT22;55448;51.330;4.946;2022-08-05T06:39:27;17.50;99.90
47606;DHT22;55448;51.330;4.946;2022-08-05T06:41:52;17.50;99.90
47606;DHT22;55448;51.330;4.946;2022-08-05T06:44:18;17.60;99.90
47606;DHT22;55448;51.330;4.946;2022-08-05T06:46:44;17.70;99.90
47606;DHT22;55448;51.330;4.946;2022-08-05T06:49:09;17.70;99.90
47606;DHT22;55448;51.330;4.946;2022-08-05T06:51:35;17.60;99.90
47606;DHT22;55448;51.330;4.946;2022-08-05T06:54:03;17.70;99.90
47606;DHT22;55448;51.330;4.946;2022-08-05T06:56:30;17.70;99.90
47606;DHT22;55448;51.330;4.946;2022-08-05T06:58:56;17.70;99.90
47606;DHT22;55448;51.330;4.946;2022-08-05T07:01:21;17.70;99.90
47606;DHT22;55448;51.330;4.946;2022-08-05T07:03:48;17.90;99.90
47606;DHT22;55448;51.330;4.946;2022-08-05T07:06:13;18.00;99.90
47606;DHT22;55448;51.330;4.946;2022-08-05T07:08:39;18.00;99.90
47606;DHT22;55448;51.330;4.946;2022-08-05T07:11:05;18.10;99.90
47606;DHT22;55448;51.330;4.946;2022-08-05T07:13:33;18.00;99.90
47606;DHT22;55448;51.330;4.946;2022-08-05T07:16:18;18.00;99.90
47606;DHT22;55448;51.330;4.946;2022-08-05T07:19:02;18.00;99.90
47606;DHT22;55448;51.330;4.946;2022-08-05T07:21:28;18.10;99.90
47606;DHT22;55448;51.330;4.946;2022-08-05T07:23:55;18.20;99.90
47606;DHT22;55448;51.330;4.946;2022-08-05T07:26:21;18.20;99.90
47606;DHT22;55448;51.330;4.946;2022-08-05T07:28:46;18.30;99.90
47606;DHT22;55448;51.330;4.946;2022-08-05T07:31:12;18.40;99.90
47606;DHT22;55448;51.330;4.946;2022-08-05T07:33:38;18.20;99.90
47606;DHT22;55448;51.330;4.946;2022-08-05T07:36:04;18.00;99.90
47606;DHT22;55448;51.330;4.946;2022-08-05T07:38:30;17.90;99.90
47606;DHT22;55448;51.330;4.946;2022-08-05T07:40:56;18.10;99.90
47606;DHT22;55448;51.330;4.946;2022-08-05T07:43:21;18.20;99.90
47606;DHT22;55448;51.330;4.946;2022-08-05T07:45:47;18.40;99.90
47606;DHT22;55448;51.330;4.946;2022-08-05T07:48:13;18.30;99.90
47606;DHT22;55448;51.330;4.946;2022-08-05T07:50:38;18.70;99.90
47606;DHT22;55448;51.330;4.946;2022-08-05T07:53:04;19.00;99.90
47606;DHT22;55448;51.330;4.946;2022-08-05T07:55:30;19.10;99.90
47606;DHT22;55448;51.330;4.946;2022-08-05T07:57:56;19.20;99.90
47606;DHT22;55448;51.330;4.946;2022-08-05T08:00:22;19.30;99.90
47606;DHT22;55448;51.330;4.946;2022-08-05T08:02:49;19.40;99.90
47606;DHT22;55448;51.330;4.946;2022-08-05T08:05:15;19.10;99.90
47606;DHT22;55448;51.330;4.946;2022-08-05T08:07:41;19.20;99.90
47606;DHT22;55448;51.330;4.946;2022-08-05T08:10:07;19.40;99.90
47606;DHT22;55448;51.330;4.946;2022-08-05T08:12:33;19.60;99.90
47606;DHT22;55448;51.330;4.946;2022-08-05T08:14:58;19.70;99.90
47606;DHT22;55448;51.330;4.946;2022-08-05T08:17:24;19.70;99.90
47606;DHT22;55448;51.330;4.946;2022-08-05T08:19:50;19.70;99.90
47606;DHT22;55448;51.330;4.946;2022-08-05T08:22:15;19.50;99.90
47606;DHT22;55448;51.330;4.946;2022-08-05T08:24:41;19.50;99.90
47606;DHT22;55448;51.330;4.946;2022-08-05T08:27:07;19.60;99.90
47606;DHT22;55448;51.330;4.946;2022-08-05T08:29:32;20.00;99.90
47606;DHT22;55448;51.330;4.946;2022-08-05T08:31:58;20.60;99.90
47606;DHT22;55448;51.330;4.946;2022-08-05T08:34:25;20.50;99.90
47606;DHT22;55448;51.330;4.946;2022-08-05T08:36:51;20.60;99.90
47606;DHT22;55448;51.330;4.946;2022-08-05T08:39:17;20.20;99.90
47606;DHT22;55448;51.330;4.946;2022-08-05T08:41:46;20.20;99.90
47606;DHT22;55448;51.330;4.946;2022-08-05T08:44:15;20.40;99.90
47606;DHT22;55448;51.330;4.946;2022-08-05T08:46:43;20.90;99.90
47606;DHT22;55448;51.330;4.946;2022-08-05T08:49:13;21.40;99.90
47606;DHT22;55448;51.330;4.946;2022-08-05T08:51:40;21.80;99.90
47606;DHT22;55448;51.330;4.946;2022-08-05T08:54:07;22.20;99.90
47606;DHT22;55448;51.330;4.946;2022-08-05T08:56:33;22.10;99.90
47606;DHT22;55448;51.330;4.946;2022-08-05T08:58:59;21.50;99.90
47606;DHT22;55448;51.330;4.946;2022-08-05T09:01:25;21.30;99.90
47606;DHT22;55448;51.330;4.946;2022-08-05T09:03:53;21.10;99.90
47606;DHT22;55448;51.330;4.946;2022-08-05T09:06:21;21.00;99.90
47606;DHT22;55448;51.330;4.946;2022-08-05T09:08:47;21.20;99.90
47606;DHT22;55448;51.330;4.946;2022-08-05T09:11:13;20.90;99.90
47606;DHT22;55448;51.330;4.946;2022-08-05T09:13:40;21.10;99.90
47606;DHT22;55448;51.330;4.946;2022-08-05T09:16:07;21.60;99.90
47606;DHT22;55448;51.330;4.946;2022-08-05T09:18:35;21.70;99.90
47606;DHT22;55448;51.330;4.946;2022-08-05T09:21:01;21.80;99.90
47606;DHT22;55448;51.330;4.946;2022-08-05T09:23:27;21.80;99.90
47606;DHT22;55448;51.330;4.946;2022-08-05T09:26:07;22.00;99.90
47606;DHT22;55448;51.330;4.946;2022-08-05T09:28:34;21.80;99.90
47606;DHT22;55448;51.330;4.946;2022-08-05T09:31:06;21.90;99.90
47606;DHT22;55448;51.330;4.946;2022-08-05T09:33:49;21.90;99.90
47606;DHT22;55448;51.330;4.946;2022-08-05T09:36:15;21.80;99.90
47606;DHT22;55448;51.330;4.946;2022-08-05T09:39:02;21.40;99.90
47606;DHT22;55448;51.330;4.946;2022-08-05T09:41:28;21.40;99.90
47606;DHT22;55448;51.330;4.946;2022-08-05T09:43:54;21.60;99.90
47606;DHT22;55448;51.330;4.946;2022-08-05T09:46:27;21.60;99.90
47606;DHT22;55448;51.330;4.946;2022-08-05T09:48:55;21.40;99.90
47606;DHT22;55448;51.330;4.946;2022-08-05T09:51:35;21.30;99.90
47606;DHT22;55448;51.330;4.946;2022-08-05T09:54:03;21.30;99.90
47606;DHT22;55448;51.330;4.946;2022-08-05T09:56:32;21.30;99.90
47606;DHT22;55448;51.330;4.946;2022-08-05T10:01:26;21.80;99.90
47606;DHT22;55448;51.330;4.946;2022-08-05T10:04:05;22.00;99.90
47606;DHT22;55448;51.330;4.946;2022-08-05T10:06:32;22.10;99.90
47606;DHT22;55448;51.330;4.946;2022-08-05T10:09:13;22.10;99.90
47606;DHT22;55448;51.330;4.946;2022-08-05T10:11:40;22.00;99.90
47606;DHT22;55448;51.330;4.946;2022-08-05T10:14:26;22.10;99.90
47606;DHT22;55448;51.330;4.946;2022-08-05T10:16:53;21.60;99.90
47606;DHT22;55448;51.330;4.946;2022-08-05T10:19:24;21.50;99.90
47606;DHT22;55448;51.330;4.946;2022-08-05T10:21:50;21.50;99.90
47606;DHT22;55448;51.330;4.946;2022-08-05T10:24:18;21.60;99.90
47606;DHT22;55448;51.330;4.946;2022-08-05T10:26:48;22.10;99.90
47606;DHT22;55448;51.330;4.946;2022-08-05T10:29:14;22.80;99.90
47606;DHT22;55448;51.330;4.946;2022-08-05T10:31:40;23.40;99.90
47606;DHT22;55448;51.330;4.946;2022-08-05T10:34:07;23.60;97.80
47606;DHT22;55448;51.330;4.946;2022-08-05T10:36:38;23.40;96.30
47606;DHT22;55448;51.330;4.946;2022-08-05T10:39:09;23.60;96.50
47606;DHT22;55448;51.330;4.946;2022-08-05T10:41:46;24.00;96.50
47606;DHT22;55448;51.330;4.946;2022-08-05T10:44:18;24.00;95.50
47606;DHT22;55448;51.330;4.946;2022-08-05T10:49:17;24.40;94.50
47606;DHT22;55448;51.330;4.946;2022-08-05T10:51:48;24.40;92.40
47606;DHT22;55448;51.330;4.946;2022-08-05T10:54:14;24.60;92.30
47606;DHT22;55448;51.330;4.946;2022-08-05T10:56:52;24.40;92.20
47606;DHT22;55448;51.330;4.946;2022-08-05T10:59:28;24.50;92.90
47606;DHT22;55448;51.330;4.946;2022-08-05T11:02:13;25.00;92.40
47606;DHT22;55448;51.330;4.946;2022-08-05T11:04:43;25.40;91.90
47606;DHT22;55448;51.330;4.946;2022-08-05T11:07:09;25.60;90.40
47606;DHT22;55448;51.330;4.946;2022-08-05T11:17:36;25.20;86.40
47606;DHT22;55448;51.330;4.946;2022-08-05T11:20:07;25.20;88.00
47606;DHT22;55448;51.330;4.946;2022-08-05T11:22:48;25.30;87.20
47606;DHT22;55448;51.330;4.946;2022-08-05T11:25:36;25.00;88.70
47606;DHT22;55448;51.330;4.946;2022-08-05T11:33:33;23.70;93.00
47606;DHT22;55448;51.330;4.946;2022-08-05T11:38:49;23.20;92.80
47606;DHT22;55448;51.330;4.946;2022-08-05T11:41:27;22.90;93.60
47606;DHT22;55448;51.330;4.946;2022-08-05T11:46:30;23.00;92.90
47606;DHT22;55448;51.330;4.946;2022-08-05T11:48:58;23.40;91.50
47606;DHT22;55448;51.330;4.946;2022-08-05T11:51:25;23.70;92.80
47606;DHT22;55448;51.330;4.946;2022-08-05T11:53:52;24.00;91.70
47606;DHT22;55448;51.330;4.946;2022-08-05T11:56:18;24.50;90.20
47606;DHT22;55448;51.330;4.946;2022-08-05T11:58:45;24.30;90.70
47606;DHT22;55448;51.330;4.946;2022-08-05T12:01:17;23.80;90.10
47606;DHT22;55448;51.330;4.946;2022-08-05T12:03:55;23.60;90.10
47606;DHT22;55448;51.330;4.946;2022-08-05T12:06:25;23.20;89.90
47606;DHT22;55448;51.330;4.946;2022-08-05T12:08:55;22.90;90.60
47606;DHT22;55448;51.330;4.946;2022-08-05T12:11:24;23.10;90.80
47606;DHT22;55448;51.330;4.946;2022-08-05T12:13:57;23.60;86.00
47606;DHT22;55448;51.330;4.946;2022-08-05T12:16:25;24.00;83.70
47606;DHT22;55448;51.330;4.946;2022-08-05T12:18:51;24.40;85.90
47606;DHT22;55448;51.330;4.946;2022-08-05T12:21:20;24.90;84.50
47606;DHT22;55448;51.330;4.946;2022-08-05T12:23:53;24.80;84.30
47606;DHT22;55448;51.330;4.946;2022-08-05T12:26:19;24.80;82.90
47606;DHT22;55448;51.330;4.946;2022-08-05T12:28:45;24.70;84.60
47606;DHT22;55448;51.330;4.946;2022-08-05T12:31:10;24.80;78.20
47606;DHT22;55448;51.330;4.946;2022-08-05T12:33:36;24.90;76.80
47606;DHT22;55448;51.330;4.946;2022-08-05T12:36:03;25.10;77.30
47606;DHT22;55448;51.330;4.946;2022-08-05T12:38:29;25.20;74.20
47606;DHT22;55448;51.330;4.946;2022-08-05T12:40:56;25.30;73.30
47606;DHT22;55448;51.330;4.946;2022-08-05T12:43:22;25.20;73.80
47606;DHT22;55448;51.330;4.946;2022-08-05T12:45:52;25.10;73.90
47606;DHT22;55448;51.330;4.946;2022-08-05T12:48:19;25.60;73.40
47606;DHT22;55448;51.330;4.946;2022-08-05T12:51:07;25.90;69.90
47606;DHT22;55448;51.330;4.946;2022-08-05T12:53:40;26.00;73.40
47606;DHT22;55448;51.330;4.946;2022-08-05T12:56:21;26.10;70.60
47606;DHT22;55448;51.330;4.946;2022-08-05T12:59:13;26.20;70.10
47606;DHT22;55448;51.330;4.946;2022-08-05T13:01:41;25.90;67.70
47606;DHT22;55448;51.330;4.946;2022-08-05T13:04:07;25.80;67.10
47606;DHT22;55448;51.330;4.946;2022-08-05T13:06:36;26.00;68.00
47606;DHT22;55448;51.330;4.946;2022-08-05T13:09:11;26.00;65.50
47606;DHT22;55448;51.330;4.946;2022-08-05T13:11:39;25.60;67.00
47606;DHT22;55448;51.330;4.946;2022-08-05T13:14:22;25.00;67.30
47606;DHT22;55448;51.330;4.946;2022-08-05T13:16:56;24.70;68.40
47606;DHT22;55448;51.330;4.946;2022-08-05T13:19:24;24.90;67.90
47606;DHT22;55448;51.330;4.946;2022-08-05T13:21:51;24.90;68.10
47606;DHT22;55448;51.330;4.946;2022-08-05T13:24:18;25.10;69.60
47606;DHT22;55448;51.330;4.946;2022-08-05T13:26:47;25.30;70.70
47606;DHT22;55448;51.330;4.946;2022-08-05T13:29:14;25.60;70.30
47606;DHT22;55448;51.330;4.946;2022-08-05T13:31:40;25.40;68.90
47606;DHT22;55448;51.330;4.946;2022-08-05T13:34:06;25.40;71.10
47606;DHT22;55448;51.330;4.946;2022-08-05T13:36:32;25.40;69.10
47606;DHT22;55448;51.330;4.946;2022-08-05T13:38:59;25.30;70.10
47606;DHT22;55448;51.330;4.946;2022-08-05T13:41:25;25.30;68.60
47606;DHT22;55448;51.330;4.946;2022-08-05T13:43:50;25.10;70.60
47606;DHT22;55448;51.330;4.946;2022-08-05T13:46:16;25.30;71.50
47606;DHT22;55448;51.330;4.946;2022-08-05T13:48:42;25.70;70.50
47606;DHT22;55448;51.330;4.946;2022-08-05T13:51:09;25.10;69.80
47606;DHT22;55448;51.330;4.946;2022-08-05T13:53:35;25.10;71.20
47606;DHT22;55448;51.330;4.946;2022-08-05T13:56:01;25.60;69.50
47606;DHT22;55448;51.330;4.946;2022-08-05T13:58:27;25.80;68.10
47606;DHT22;55448;51.330;4.946;2022-08-05T14:00:53;25.80;66.30
47606;DHT22;55448;51.330;4.946;2022-08-05T14:03:19;25.90;65.30
47606;DHT22;55448;51.330;4.946;2022-08-05T14:05:45;25.80;66.50
47606;DHT22;55448;51.330;4.946;2022-08-05T14:08:10;25.90;63.60
47606;DHT22;55448;51.330;4.946;2022-08-05T14:10:36;25.60;65.60
47606;DHT22;55448;51.330;4.946;2022-08-05T14:13:03;25.60;66.40
47606;DHT22;55448;51.330;4.946;2022-08-05T14:15:30;26.20;64.00
47606;DHT22;55448;51.330;4.946;2022-08-05T14:17:56;26.50;61.50
47606;DHT22;55448;51.330;4.946;2022-08-05T14:20:22;26.50;58.90
47606;DHT22;55448;51.330;4.946;2022-08-05T14:22:47;26.60;60.70
47606;DHT22;55448;51.330;4.946;2022-08-05T14:25:13;26.50;59.70
47606;DHT22;55448;51.330;4.946;2022-08-05T14:27:39;26.50;61.40
47606;DHT22;55448;51.330;4.946;2022-08-05T14:30:05;26.70;59.00
47606;DHT22;55448;51.330;4.946;2022-08-05T14:32:31;26.20;58.60
47606;DHT22;55448;51.330;4.946;2022-08-05T14:34:58;25.90;58.70
47606;DHT22;55448;51.330;4.946;2022-08-05T14:37:24;25.90;57.90
47606;DHT22;55448;51.330;4.946;2022-08-05T14:39:49;25.90;58.10
47606;DHT22;55448;51.330;4.946;2022-08-05T14:42:15;25.80;60.60
47606;DHT22;55448;51.330;4.946;2022-08-05T14:44:41;26.30;58.90
47606;DHT22;55448;51.330;4.946;2022-08-05T14:47:06;26.50;57.50
47606;DHT22;55448;51.330;4.946;2022-08-05T14:49:32;26.90;55.60
47606;DHT22;55448;51.330;4.946;2022-08-05T14:51:58;26.90;55.60
47606;DHT22;55448;51.330;4.946;2022-08-05T14:54:23;26.50;55.50
47606;DHT22;55448;51.330;4.946;2022-08-05T14:56:49;26.70;54.80
47606;DHT22;55448;51.330;4.946;2022-08-05T14:59:15;26.60;55.10
47606;DHT22;55448;51.330;4.946;2022-08-05T15:01:41;26.60;55.50
47606;DHT22;55448;51.330;4.946;2022-08-05T15:04:06;26.70;54.50
47606;DHT22;55448;51.330;4.946;2022-08-05T15:06:35;26.70;54.80
47606;DHT22;55448;51.330;4.946;2022-08-05T15:09:01;26.40;54.30
47606;DHT22;55448;51.330;4.946;2022-08-05T15:11:26;26.70;53.90
47606;DHT22;55448;51.330;4.946;2022-08-05T15:13:52;26.90;53.50
47606;DHT22;55448;51.330;4.946;2022-08-05T15:16:18;27.00;54.10
47606;DHT22;55448;51.330;4.946;2022-08-05T15:18:43;27.40;52.90
47606;DHT22;55448;51.330;4.946;2022-08-05T15:21:09;26.80;54.20
47606;DHT22;55448;51.330;4.946;2022-08-05T15:23:35;26.30;54.00
47606;DHT22;55448;51.330;4.946;2022-08-05T15:26:00;25.60;54.80
47606;DHT22;55448;51.330;4.946;2022-08-05T15:28:26;25.00;56.20
47606;DHT22;55448;51.330;4.946;2022-08-05T15:30:51;24.40;58.20
47606;DHT22;55448;51.330;4.946;2022-08-05T15:33:17;24.50;57.70
47606;DHT22;55448;51.330;4.946;2022-08-05T15:35:43;24.50;58.40
47606;DHT22;55448;51.330;4.946;2022-08-05T15:38:08;24.00;58.30
47606;DHT22;55448;51.330;4.946;2022-08-05T15:40:34;24.10;59.80
47606;DHT22;55448;51.330;4.946;2022-08-05T15:43:00;24.20;59.90
47606;DHT22;55448;51.330;4.946;2022-08-05T15:45:25;24.50;57.90
47606;DHT22;55448;51.330;4.946;2022-08-05T15:47:51;24.30;58.60
47606;DHT22;55448;51.330;4.946;2022-08-05T15:50:17;24.10;60.10
47606;DHT22;55448;51.330;4.946;2022-08-05T15:52:42;24.30;59.90
47606;DHT22;55448;51.330;4.946;2022-08-05T15:55:10;24.90;59.00
47606;DHT22;55448;51.330;4.946;2022-08-05T15:57:38;25.30;58.50
47606;DHT22;55448;51.330;4.946;2022-08-05T16:00:05;25.70;57.70
47606;DHT22;55448;51.330;4.946;2022-08-05T16:02:31;26.20;56.00
47606;DHT22;55448;51.330;4.946;2022-08-05T16:04:57;26.60;55.20
47606;DHT22;55448;51.330;4.946;2022-08-05T16:07:23;26.60;54.00